Time;durP1;ratioP1;P1;durP2;ratioP2;P2;SDS_P1;SDS_P2;PMS_P1;PMS_P2;Temp;Humidity;BMP_temperature;BMP_pressure;BME280_temperature;BME280_humidity;BME280_pressure;Samples;Min_cycle;Max_cycle;Signal;HPM_P1;HPM_P2
2022/03/06 00:00:07;;;;;;;;;;;;;;;21.05;39.46;102442.53;7278457;19;154056;-53
2022/03/06 00:02:33;;;;;;;;;;;;;;;21.06;39.72;102439.47;7279190;19;151721;-55
2022/03/06 00:05:01;;;;;;;;;;;;;;;21.07;39.47;102437.50;7277476;19;152645;-55
2022/03/06 00:07:27;;;;;;;;;;;;;;;21.08;39.96;102430.75;7278160;19;153321;-53
2022/03/06 00:09:54;;;;;;;;;;;;;;;21.08;40.01;102427.94;7287195;19;151547;-53
2022/03/06 00:12:20;;;;;;;;;;;;;;;21.09;39.89;102436.09;7276205;19;154516;-53
2022/03/06 00:14:47;;;;;;;;;;;;;;;21.09;40.05;102430.47;7280015;19;151593;-53
2022/03/06 00:17:14;;;;;;;;;;;;;;;21.09;40.18;102433.28;7280435;19;153232;-53
2022/03/06 00:19:40;;;;;;;;;;;;;;;21.09;40.04;102444.53;7279138;19;153257;-52
2022/03/06 00:22:07;;;;;;;;;;;;;;;21.09;40.38;102443.69;7278834;19;152381;-52
2022/03/06 00:24:34;;;;;;;;;;;;;;;21.08;40.15;102444.78;7278572;19;153737;-53
2022/03/06 00:27:00;;;;;;;;;;;;;;;21.09;40.52;102438.06;7280669;19;153955;-53
2022/03/06 00:29:28;;;;;;;;;;;;;;;21.07;40.22;102435.53;7281811;19;151937;-54
2022/03/06 00:31:55;;;;;;;;;;;;;;;21.06;40.09;102441.44;7284487;19;153836;-53
2022/03/06 00:34:21;;;;;;;;;;;;;;;21.04;40.45;102444.50;7280757;19;151811;-53
2022/03/06 00:36:48;;;;;;;;;;;;;;;21.02;40.79;102448.72;7279291;19;152655;-53
2022/03/06 00:39:17;;;;;;;;;;;;;;;21.02;40.67;102449.56;7278938;19;153593;-53
2022/03/06 00:41:43;;;;;;;;;;;;;;;21.03;40.92;102450.44;7277077;19;151644;-53
2022/03/06 00:44:10;;;;;;;;;;;;;;;21.01;40.71;102444.22;7276580;19;153327;-53
2022/03/06 00:46:37;;;;;;;;;;;;;;;21.00;40.98;102442.53;7277544;19;153530;-52
2022/03/06 00:49:03;;;;;;;;;;;;;;;21.00;40.69;102445.34;7279036;19;151724;-53
2022/03/06 00:51:30;;;;;;;;;;;;;;;20.98;41.02;102436.34;7281023;19;152776;-53
2022/03/06 00:53:56;;;;;;;;;;;;;;;20.98;40.99;102442.81;7285695;19;151552;-52
2022/03/06 00:56:23;;;;;;;;;;;;;;;20.96;41.00;102442.22;7279915;19;153136;-53
2022/03/06 00:58:50;;;;;;;;;;;;;;;20.95;41.00;102439.69;7278988;19;153665;-53
2022/03/06 01:01:16;;;;;;;;;;;;;;;20.94;40.69;102446.47;7280750;19;151977;-55
2022/03/06 01:03:44;;;;;;;;;;;;;;;20.90;41.17;102439.66;7277366;19;152783;-53
2022/03/06 01:06:10;;;;;;;;;;;;;;;20.88;41.31;102447.53;7276064;19;153740;-53
2022/03/06 01:08:37;;;;;;;;;;;;;;;20.87;41.43;102443.88;7279825;19;151613;-53
2022/03/06 01:11:03;;;;;;;;;;;;;;;20.85;41.16;102446.09;7276220;19;153287;-53
2022/03/06 01:13:30;;;;;;;;;;;;;;;20.82;41.20;102449.47;7286062;19;153919;-53
2022/03/06 01:15:57;;;;;;;;;;;;;;;20.78;41.15;102445.53;7276970;19;153324;-54
2022/03/06 01:18:24;;;;;;;;;;;;;;;20.77;41.53;102463.50;7278737;19;153498;-53
2022/03/06 01:20:51;;;;;;;;;;;;;;;20.76;41.60;102461.78;7279740;19;151747;-53
2022/03/06 01:23:17;;;;;;;;;;;;;;;20.73;41.70;102463.19;7276740;19;153330;-53
2022/03/06 01:25:44;;;;;;;;;;;;;;;20.71;41.34;102471.06;7275298;19;154289;-52
2022/03/06 01:28:11;;;;;;;;;;;;;;;20.70;41.45;102471.34;7276840;19;151837;-53
2022/03/06 01:30:38;;;;;;;;;;;;;;;20.66;41.93;102465.41;7278622;19;156184;-53
2022/03/06 01:33:04;;;;;;;;;;;;;;;20.63;41.95;102473.53;7275526;19;153765;-53
2022/03/06 01:35:31;;;;;;;;;;;;;;;20.59;41.84;102478.84;7286327;19;151837;-53
2022/03/06 01:37:58;;;;;;;;;;;;;;;20.58;41.85;102488.38;7277526;19;153984;-53
2022/03/06 01:40:25;;;;;;;;;;;;;;;20.54;41.99;102476.00;7279019;19;151647;-53
2022/03/06 01:42:52;;;;;;;;;;;;;;;20.53;42.27;102477.16;7278230;19;153359;-53
2022/03/06 01:45:19;;;;;;;;;;;;;;;20.50;42.47;102480.47;7274441;19;154336;-53
2022/03/06 01:47:49;;;;;;;;;;;;;;;20.47;42.54;102478.22;7275938;19;151774;-53
2022/03/06 01:50:19;;;;;;;;;;;;;;;20.47;42.27;102480.19;7276819;19;153101;-52
2022/03/06 01:52:47;;;;;;;;;;;;;;;20.43;42.36;102485.50;7270400;19;153884;-53
2022/03/06 01:55:15;;;;;;;;;;;;;;;20.40;42.28;102486.00;7277964;19;151855;-53
2022/03/06 01:57:46;;;;;;;;;;;;;;;20.39;42.62;102479.59;7281075;19;151748;-53
2022/03/06 02:00:18;;;;;;;;;;;;;;;20.35;42.50;102484.00;7276851;19;151753;-53
2022/03/06 02:02:44;;;;;;;;;;;;;;;20.31;42.77;102480.06;7275781;19;153390;-52
2022/03/06 02:05:11;;;;;;;;;;;;;;;20.32;42.42;102481.75;7274957;19;153777;-53
2022/03/06 02:07:38;;;;;;;;;;;;;;;20.28;42.79;102479.72;7276066;19;152078;-52
2022/03/06 02:10:06;;;;;;;;;;;;;;;20.23;42.97;102476.88;7278618;19;152741;-53
2022/03/06 02:12:32;;;;;;;;;;;;;;;20.21;42.91;102477.16;7276748;19;153829;-54
2022/03/06 02:15:00;;;;;;;;;;;;;;;20.19;42.67;102475.72;7277128;19;151700;-53
2022/03/06 02:17:27;;;;;;;;;;;;;;;20.16;43.14;102477.13;7277520;19;153888;-53
2022/03/06 02:19:54;;;;;;;;;;;;;;;20.14;42.62;102470.06;7280916;19;153835;-53
2022/03/06 02:22:22;;;;;;;;;;;;;;;20.13;42.94;102473.97;7277184;19;153286;-53
2022/03/06 02:24:49;;;;;;;;;;;;;;;20.09;42.85;102465.25;7273730;19;153357;-53
2022/03/06 02:27:17;;;;;;;;;;;;;;;20.09;42.89;102464.41;7275389;19;151655;-53
2022/03/06 02:29:44;;;;;;;;;;;;;;;20.03;42.80;102465.50;7277190;19;155932;-53
2022/03/06 02:32:12;;;;;;;;;;;;;;;20.00;42.71;102464.06;7275073;19;153475;-53
2022/03/06 02:34:39;;;;;;;;;;;;;;;19.99;42.65;102470.78;7274962;19;152119;-52
2022/03/06 02:37:06;;;;;;;;;;;;;;;19.95;42.97;102469.63;7273587;19;152897;-53
2022/03/06 02:39:33;;;;;;;;;;;;;;;19.95;42.97;102475.25;7273996;19;153502;-53
2022/03/06 02:42:01;;;;;;;;;;;;;;;19.93;43.07;102457.84;7282114;19;151846;-53
2022/03/06 02:44:29;;;;;;;;;;;;;;;19.91;42.93;102460.91;7272258;19;153576;-53
2022/03/06 02:46:56;;;;;;;;;;;;;;;19.91;42.49;102457.25;7274805;19;151835;-53
2022/03/06 02:49:23;;;;;;;;;;;;;;;19.87;43.17;102454.16;7270587;19;153444;-53
2022/03/06 02:51:54;;;;;;;;;;;;;;;19.86;42.70;102457.22;7275144;19;153784;-53
2022/03/06 02:54:25;;;;;;;;;;;;;;;19.81;42.88;102460.81;7269512;19;151860;-56
2022/03/06 02:56:55;;;;;;;;;;;;;;;19.80;42.84;102452.69;7273286;19;155076;-55
2022/03/06 02:59:22;;;;;;;;;;;;;;;19.78;43.05;102457.72;7273668;19;154975;-54
2022/03/06 03:01:49;;;;;;;;;;;;;;;19.75;42.80;102455.44;7283037;19;151856;-53
2022/03/06 03:04:16;;;;;;;;;;;;;;;19.74;43.22;102462.16;7276390;19;154569;-52
2022/03/06 03:06:44;;;;;;;;;;;;;;;19.70;43.14;102458.19;7283635;19;151652;-53
2022/03/06 03:09:13;;;;;;;;;;;;;;;19.67;43.30;102458.75;7283126;19;152803;-52
2022/03/06 03:11:39;;;;;;;;;;;;;;;19.65;43.46;102453.38;7280964;19;154081;-53
2022/03/06 03:14:06;;;;;;;;;;;;;;;19.64;43.35;102456.44;7281275;19;152157;-53
2022/03/06 03:16:33;;;;;;;;;;;;;;;19.59;43.43;102454.44;7281940;19;153305;-53
2022/03/06 03:19:00;;;;;;;;;;;;;;;19.58;43.61;102449.94;7279086;19;154112;-52
2022/03/06 03:21:27;;;;;;;;;;;;;;;19.56;43.52;102448.53;7279431;19;153403;-52
2022/03/06 03:23:54;;;;;;;;;;;;;;;19.54;43.76;102451.59;7286641;19;154110;-52
2022/03/06 03:26:21;;;;;;;;;;;;;;;19.52;43.54;102445.41;7277589;19;152169;-53
2022/03/06 03:28:48;;;;;;;;;;;;;;;19.50;43.66;102436.41;7283018;19;153295;-52
2022/03/06 03:31:14;;;;;;;;;;;;;;;19.47;43.83;102445.34;7279238;19;153842;-52
2022/03/06 03:33:41;;;;;;;;;;;;;;;19.44;44.04;102438.31;7278136;19;151904;-52
2022/03/06 03:36:08;;;;;;;;;;;;;;;19.43;43.78;102436.66;7281023;19;152851;-53
2022/03/06 03:38:34;;;;;;;;;;;;;;;19.43;43.80;102430.16;7280759;19;153899;-52
2022/03/06 03:41:02;;;;;;;;;;;;;;;19.40;43.72;102433.47;7281682;19;151868;-52
2022/03/06 03:43:29;;;;;;;;;;;;;;;19.40;44.24;102436.28;7280388;19;153175;-52
2022/03/06 03:45:59;;;;;;;;;;;;;;;19.38;43.90;102435.69;7284504;19;156011;-53
2022/03/06 03:48:27;;;;;;;;;;;;;;;19.36;44.28;102437.91;7281932;19;153248;-52
2022/03/06 03:50:54;;;;;;;;;;;;;;;19.32;44.22;102448.81;7277774;19;152750;-53
2022/03/06 03:53:21;;;;;;;;;;;;;;;19.31;44.47;102446.25;7277204;19;152064;-53
2022/03/06 03:55:48;;;;;;;;;;;;;;;19.29;44.32;102449.34;7280290;19;152826;-52
2022/03/06 03:58:15;;;;;;;;;;;;;;;19.28;44.41;102452.41;7277015;19;155546;-53
2022/03/06 04:00:43;;;;;;;;;;;;;;;19.27;44.60;102453.50;7279514;19;151718;-53
2022/03/06 04:03:10;;;;;;;;;;;;;;;19.26;44.67;102454.63;7279002;19;152738;-52
2022/03/06 04:05:37;;;;;;;;;;;;;;;19.26;44.52;102451.84;7279066;19;154209;-52
2022/03/06 04:08:04;;;;;;;;;;;;;;;19.21;44.92;102448.97;7289684;19;151903;-53
2022/03/06 04:10:30;;;;;;;;;;;;;;;19.22;44.78;102456.25;7278682;19;153566;-52
2022/03/06 04:12:57;;;;;;;;;;;;;;;19.19;44.69;102456.78;7277770;19;153755;-52
2022/03/06 04:15:24;;;;;;;;;;;;;;;19.18;44.83;102464.34;7280054;19;154632;-53
2022/03/06 04:17:50;;;;;;;;;;;;;;;19.16;45.10;102457.31;7277088;19;153392;-52
2022/03/06 04:20:17;;;;;;;;;;;;;;;19.14;45.06;102462.31;7281240;19;151755;-52
2022/03/06 04:22:43;;;;;;;;;;;;;;;19.13;44.89;102458.66;7277988;19;152914;-52
2022/03/06 04:25:10;;;;;;;;;;;;;;;19.14;45.02;102467.94;7279738;19;153567;-52
2022/03/06 04:27:37;;;;;;;;;;;;;;;19.13;45.19;102466.22;7278944;19;151787;-53
2022/03/06 04:30:04;;;;;;;;;;;;;;;19.10;45.23;102468.47;7286511;19;153579;-53
2022/03/06 04:32:31;;;;;;;;;;;;;;;19.07;45.31;102476.53;7279115;19;151622;-52
2022/03/06 04:34:58;;;;;;;;;;;;;;;19.06;45.25;102474.84;7277636;19;152868;-52
2022/03/06 04:37:24;;;;;;;;;;;;;;;19.06;45.17;102486.06;7279122;19;153468;-53
2022/03/06 04:39:51;;;;;;;;;;;;;;;19.02;45.01;102470.88;7278753;19;151713;-55
2022/03/06 04:42:17;;;;;;;;;;;;;;;19.00;45.22;102476.72;7280929;19;152781;-52
2022/03/06 04:44:44;;;;;;;;;;;;;;;18.97;45.02;102477.25;7276342;19;153769;-53
2022/03/06 04:47:11;;;;;;;;;;;;;;;18.97;45.18;102477.25;7275808;19;151749;-52
2022/03/06 04:49:38;;;;;;;;;;;;;;;18.98;45.23;102478.97;7278096;19;153305;-52
2022/03/06 04:52:05;;;;;;;;;;;;;;;18.98;45.29;102484.56;7285220;19;153404;-52
2022/03/06 04:54:31;;;;;;;;;;;;;;;18.96;45.03;102481.16;7280547;19;153246;-53
2022/03/06 04:56:58;;;;;;;;;;;;;;;18.94;45.27;102476.94;7279202;19;153324;-52
2022/03/06 04:59:25;;;;;;;;;;;;;;;18.93;45.13;102480.84;7280081;19;151791;-53
2022/03/06 05:01:51;;;;;;;;;;;;;;;18.90;44.88;102485.00;7278336;19;152788;-53
2022/03/06 05:04:18;;;;;;;;;;;;;;;18.90;45.11;102486.94;7278926;19;153853;-52
2022/03/06 05:06:45;;;;;;;;;;;;;;;18.89;45.22;102491.72;7278122;19;152032;-51
2022/03/06 05:09:11;;;;;;;;;;;;;;;18.88;44.82;102478.81;7277264;19;153795;-56
2022/03/06 05:11:38;;;;;;;;;;;;;;;18.86;45.27;102483.81;7286721;19;153418;-52
2022/03/06 05:14:05;;;;;;;;;;;;;;;18.85;45.04;102498.94;7278051;19;152876;-52
2022/03/06 05:16:31;;;;;;;;;;;;;;;18.84;45.28;102485.22;7279143;19;153904;-53
2022/03/06 05:18:59;;;;;;;;;;;;;;;18.82;45.08;102490.19;7278649;19;151997;-52
2022/03/06 05:21:26;;;;;;;;;;;;;;;18.79;44.89;102491.59;7280449;19;153110;-52
2022/03/06 05:23:53;;;;;;;;;;;;;;;18.80;44.72;102498.88;7277784;19;153736;-53
2022/03/06 05:26:20;;;;;;;;;;;;;;;18.80;45.28;102503.63;7277933;19;151561;-52
2022/03/06 05:28:46;;;;;;;;;;;;;;;18.78;44.95;102501.09;7278168;19;152733;-52
2022/03/06 05:31:13;;;;;;;;;;;;;;;18.74;45.02;102511.09;7278501;19;154632;-53
2022/03/06 05:33:40;;;;;;;;;;;;;;;18.74;45.08;102515.84;7282896;19;151866;-52
2022/03/06 05:36:07;;;;;;;;;;;;;;;18.70;45.01;102520.28;7277203;19;153347;-52
2022/03/06 05:38:33;;;;;;;;;;;;;;;18.70;45.05;102514.69;7278819;19;151604;-52
2022/03/06 05:41:00;;;;;;;;;;;;;;;18.67;44.74;102518.81;7278788;19;153299;-52
2022/03/06 05:43:27;;;;;;;;;;;;;;;18.63;44.71;102521.31;7277180;19;154296;-52
2022/03/06 05:45:53;;;;;;;;;;;;;;;18.62;44.88;102513.19;7277978;19;151959;-52
2022/03/06 05:48:20;;;;;;;;;;;;;;;18.60;44.86;102515.38;7279113;19;153095;-52
2022/03/06 05:50:47;;;;;;;;;;;;;;;18.60;44.94;102523.78;7275767;19;153871;-52
2022/03/06 05:53:14;;;;;;;;;;;;;;;18.57;44.80;102527.09;7276497;19;151765;-53
2022/03/06 05:55:41;;;;;;;;;;;;;;;18.55;45.08;102518.94;7282020;19;152813;-54
2022/03/06 05:58:08;;;;;;;;;;;;;;;18.55;44.69;102526.50;7278413;19;151589;-55
2022/03/06 06:00:34;;;;;;;;;;;;;;;18.52;45.03;102536.22;7275118;19;152044;-55
2022/03/06 06:03:02;;;;;;;;;;;;;;;18.50;44.70;102532.81;7276706;19;153308;-55
2022/03/06 06:05:29;;;;;;;;;;;;;;;18.50;45.02;102534.78;7277937;19;152608;-55
2022/03/06 06:07:56;;;;;;;;;;;;;;;18.49;44.90;102545.13;7275615;19;153158;-54
2022/03/06 06:10:23;;;;;;;;;;;;;;;18.48;45.22;102545.41;7273873;19;153881;-55
2022/03/06 06:12:49;;;;;;;;;;;;;;;18.47;44.92;102540.88;7275703;19;151985;-55
2022/03/06 06:15:16;;;;;;;;;;;;;;;18.45;45.16;102543.94;7278576;19;152844;-55
2022/03/06 06:17:43;;;;;;;;;;;;;;;18.44;45.20;102553.44;7284317;19;153423;-55
2022/03/06 06:20:10;;;;;;;;;;;;;;;18.42;45.09;102552.84;7276438;19;153335;-55
2022/03/06 06:22:37;;;;;;;;;;;;;;;18.41;45.04;102556.75;7275465;19;154507;-55
2022/03/06 06:25:04;;;;;;;;;;;;;;;18.41;44.94;102561.50;7276743;19;151942;-52
2022/03/06 06:27:31;;;;;;;;;;;;;;;18.40;44.93;102565.38;7273391;19;153277;-55
2022/03/06 06:29:57;;;;;;;;;;;;;;;18.39;45.19;102574.91;7276053;19;154201;-55
2022/03/06 06:32:24;;;;;;;;;;;;;;;18.44;45.23;102570.22;7277997;19;151937;-55
2022/03/06 06:34:51;;;;;;;;;;;;;;;18.49;45.33;102569.47;7277362;19;152721;-55
2022/03/06 06:37:18;;;;;;;;;;;;;;;18.52;45.32;102564.22;7273296;19;154167;-55
2022/03/06 06:39:44;;;;;;;;;;;;;;;18.56;45.57;102572.97;7289635;19;151587;-52
2022/03/06 06:42:11;;;;;;;;;;;;;;;18.60;45.56;102575.00;7281066;19;154317;-54
2022/03/06 06:44:38;;;;;;;;;;;;;;;18.67;45.69;102577.63;7281217;19;151856;-53
2022/03/06 06:47:10;;;;;;;;;;;;;;;18.72;45.36;102583.31;7281865;19;153542;-53
2022/03/06 06:49:37;;;;;;;;;;;;;;;18.76;46.04;102583.66;7280534;19;153862;-53
2022/03/06 06:52:05;;;;;;;;;;;;;;;18.81;45.82;102581.75;7282106;19;151783;-53
2022/03/06 06:54:31;;;;;;;;;;;;;;;18.88;45.62;102576.00;7281195;19;152611;-53
2022/03/06 06:56:58;;;;;;;;;;;;;;;18.93;45.65;102582.53;7280608;19;153164;-53
2022/03/06 06:59:29;;;;;;;;;;;;;;;18.99;45.90;102575.00;7281234;19;151951;-53
2022/03/06 07:01:56;;;;;;;;;;;;;;;19.04;45.48;102575.94;7287405;19;152737;-53
2022/03/06 07:04:23;;;;;;;;;;;;;;;19.11;45.16;102581.38;7283019;19;151775;-52
2022/03/06 07:06:49;;;;;;;;;;;;;;;19.15;45.35;102588.16;7281813;19;152761;-53
2022/03/06 07:09:16;;;;;;;;;;;;;;;19.22;45.74;102579.53;7281139;19;153259;-54
2022/03/06 07:11:43;;;;;;;;;;;;;;;19.27;45.51;102580.47;7282838;19;151808;-52
2022/03/06 07:14:10;;;;;;;;;;;;;;;19.34;46.37;102583.09;7281873;19;153057;-53
2022/03/06 07:16:36;;;;;;;;;;;;;;;19.40;45.97;102590.41;7281079;19;153363;-53
2022/03/06 07:19:03;;;;;;;;;;;;;;;19.46;45.71;102589.41;7280615;19;151849;-52
2022/03/06 07:21:30;;;;;;;;;;;;;;;19.51;45.57;102593.16;7287338;19;152909;-54
2022/03/06 07:23:57;;;;;;;;;;;;;;;19.57;45.20;102588.47;7279709;19;151954;-52
2022/03/06 07:26:23;;;;;;;;;;;;;;;19.63;45.53;102604.22;7282151;19;152618;-54
2022/03/06 07:28:50;;;;;;;;;;;;;;;19.68;45.29;102601.47;7281170;19;153155;-53
2022/03/06 07:31:17;;;;;;;;;;;;;;;19.74;45.25;102608.84;7280458;19;151530;-53
2022/03/06 07:33:44;;;;;;;;;;;;;;;19.79;44.98;102602.44;7281980;19;153274;-53
2022/03/06 07:36:11;;;;;;;;;;;;;;;19.85;44.85;102605.03;7281717;19;153487;-53
2022/03/06 07:38:37;;;;;;;;;;;;;;;19.91;44.88;102606.78;7280014;19;151698;-53
2022/03/06 07:41:05;;;;;;;;;;;;;;;19.94;44.73;102614.66;7282592;19;152966;-54
2022/03/06 07:43:31;;;;;;;;;;;;;;;20.01;44.95;102619.22;7288561;19;153487;-53
2022/03/06 07:45:58;;;;;;;;;;;;;;;20.07;44.87;102621.84;7282286;19;153217;-53
2022/03/06 07:48:25;;;;;;;;;;;;;;;20.11;44.41;102625.81;7278086;19;153768;-53
2022/03/06 07:50:52;;;;;;;;;;;;;;;20.16;44.51;102625.00;7279543;19;151897;-52
2022/03/06 07:53:19;;;;;;;;;;;;;;;20.21;44.34;102623.09;7277753;19;152745;-53
2022/03/06 07:55:45;;;;;;;;;;;;;;;20.25;44.01;102626.22;7280894;19;153934;-52
2022/03/06 07:58:12;;;;;;;;;;;;;;;20.30;44.85;102632.78;7281101;19;152308;-53
2022/03/06 08:00:39;;;;;;;;;;;;;;;20.35;44.48;102640.41;7282235;19;153052;-53
2022/03/06 08:03:06;;;;;;;;;;;;;;;20.40;44.95;102637.63;7277473;19;153757;-52
2022/03/06 08:05:33;;;;;;;;;;;;;;;20.44;44.41;102643.56;7288915;19;151479;-52
2022/03/06 08:08:00;;;;;;;;;;;;;;;20.49;44.29;102641.63;7275394;19;153969;-52
2022/03/06 08:10:26;;;;;;;;;;;;;;;20.52;44.03;102641.13;7281544;19;151520;-52
2022/03/06 08:12:53;;;;;;;;;;;;;;;20.55;43.97;102643.38;7282165;19;153533;-52
2022/03/06 08:15:20;;;;;;;;;;;;;;;20.60;43.89;102651.00;7279732;19;153720;-52
2022/03/06 08:17:47;;;;;;;;;;;;;;;20.64;43.66;102652.16;7280760;19;151725;-52
2022/03/06 08:20:14;;;;;;;;;;;;;;;20.66;44.11;102659.22;7279577;19;152835;-52
2022/03/06 08:22:40;;;;;;;;;;;;;;;20.70;44.18;102653.91;7280163;19;155233;-52
2022/03/06 08:25:08;;;;;;;;;;;;;;;20.71;44.07;102648.03;7278206;19;151866;-52
2022/03/06 08:27:34;;;;;;;;;;;;;;;20.75;43.74;102656.75;7286506;19;152837;-53
2022/03/06 08:30:02;;;;;;;;;;;;;;;20.75;44.34;102653.94;7280043;19;151618;-52
2022/03/06 08:32:29;;;;;;;;;;;;;;;20.77;43.73;102655.38;7279402;19;151722;-55
2022/03/06 08:34:56;;;;;;;;;;;;;;;20.79;44.08;102660.72;7278220;19;153296;-55
2022/03/06 08:37:23;;;;;;;;;;;;;;;20.78;43.83;102651.44;7280724;19;151866;-53
2022/03/06 08:39:50;;;;;;;;;;;;;;;20.80;43.83;102654.81;7280756;19;152604;-53
2022/03/06 08:42:17;;;;;;;;;;;;;;;20.80;43.62;102659.63;7279427;19;153314;-53
2022/03/06 08:44:44;;;;;;;;;;;;;;;20.80;43.81;102660.44;7280663;19;151981;-53
2022/03/06 08:47:11;;;;;;;;;;;;;;;20.81;43.74;102655.66;7279012;19;153201;-53
2022/03/06 08:49:37;;;;;;;;;;;;;;;20.81;43.43;102661.28;7284464;19;154402;-53
2022/03/06 08:52:05;;;;;;;;;;;;;;;20.79;43.56;102663.53;7277918;19;152848;-53
2022/03/06 08:54:31;;;;;;;;;;;;;;;20.79;43.12;102660.72;7277224;19;153912;-53
2022/03/06 08:56:58;;;;;;;;;;;;;;;20.78;43.08;102659.88;7280825;19;151532;-52
2022/03/06 08:59:25;;;;;;;;;;;;;;;20.77;43.37;102660.13;7279197;19;152553;-53
2022/03/06 09:01:55;;;;;;;;;;;;;;;20.77;43.71;102655.38;7278752;19;153577;-53
2022/03/06 09:04:23;;;;;;;;;;;;;;;20.77;43.23;102657.31;7280407;19;151762;-53
2022/03/06 09:06:50;;;;;;;;;;;;;;;20.75;43.21;102659.56;7277636;19;153034;-54
2022/03/06 09:09:17;;;;;;;;;;;;;;;20.74;43.49;102664.34;7275561;19;153680;-53
2022/03/06 09:11:45;;;;;;;;;;;;;;;20.73;43.22;102654.22;7286213;19;151943;-53
2022/03/06 09:14:12;;;;;;;;;;;;;;;20.71;43.29;102656.47;7276553;19;153373;-53
2022/03/06 09:16:39;;;;;;;;;;;;;;;20.71;43.02;102664.88;7278121;19;152103;-53
2022/03/06 09:19:05;;;;;;;;;;;;;;;20.71;43.55;102667.69;7277540;19;153612;-53
2022/03/06 09:21:32;;;;;;;;;;;;;;;20.72;43.57;102683.41;7276742;19;153405;-53
2022/03/06 09:23:59;;;;;;;;;;;;;;;20.71;43.48;102670.50;7277030;19;151808;-52
2022/03/06 09:26:26;;;;;;;;;;;;;;;20.70;43.41;102690.41;7279046;19;153504;-53
2022/03/06 09:28:53;;;;;;;;;;;;;;;20.70;43.08;102682.00;7273198;19;154099;-54
2022/03/06 09:31:20;;;;;;;;;;;;;;;20.67;43.36;102688.16;7286534;19;151539;-53
2022/03/06 09:33:47;;;;;;;;;;;;;;;20.67;43.23;102690.97;7278227;19;153491;-53
2022/03/06 09:36:35;;;;;;;;;;;;;;;20.67;43.15;102690.97;7279358;19;152331;-53
2022/03/06 09:39:01;;;;;;;;;;;;;;;20.65;43.15;102690.38;7279324;19;153072;-53
2022/03/06 09:41:28;;;;;;;;;;;;;;;20.65;44.05;102696.00;7276997;19;153793;-53
2022/03/06 09:43:56;;;;;;;;;;;;;;;20.63;43.99;102689.78;7278843;19;152345;-53
2022/03/06 09:46:24;;;;;;;;;;;;;;;20.65;42.34;102696.84;7274844;19;153840;-53
2022/03/06 09:48:51;;;;;;;;;;;;;;;20.44;40.85;102697.75;7273625;19;153765;-53
2022/03/06 09:51:19;;;;;;;;;;;;;;;20.51;40.78;102695.56;7276603;19;151867;-53
2022/03/06 09:53:46;;;;;;;;;;;;;;;20.46;40.51;102687.09;7280846;19;152777;-55
2022/03/06 09:56:13;;;;;;;;;;;;;;;20.46;39.94;102686.25;7277365;19;151792;-55
2022/03/06 09:58:39;;;;;;;;;;;;;;;20.43;39.79;102684.84;7275608;19;152509;-55
2022/03/06 10:01:06;;;;;;;;;;;;;;;20.42;39.25;102683.13;7278175;19;153870;-55
2022/03/06 10:03:35;;;;;;;;;;;;;;;20.41;39.33;102692.66;7277533;19;151678;-55
2022/03/06 10:06:05;;;;;;;;;;;;;;;20.44;39.45;102682.88;7276678;19;153621;-53
2022/03/06 10:08:32;;;;;;;;;;;;;;;20.39;39.42;102680.88;7272155;19;153991;-53
2022/03/06 10:11:01;;;;;;;;;;;;;;;20.35;38.96;102677.72;7279288;19;151772;-52
2022/03/06 10:13:29;;;;;;;;;;;;;;;20.34;39.45;102673.25;7276445;19;153262;-54
2022/03/06 10:16:06;;;;;;;;;;;;;;;20.29;39.21;102681.56;7289212;19;153646;-53
2022/03/06 10:18:34;;;;;;;;;;;;;;;20.30;39.13;102672.06;7284729;19;153612;-53
2022/03/06 10:21:03;;;;;;;;;;;;;;;20.26;39.46;102672.84;7282277;19;153678;-53
2022/03/06 10:23:30;;;;;;;;;;;;;;;20.22;39.35;102680.06;7282507;19;151826;-53
2022/03/06 10:25:59;;;;;;;;;;;;;;;20.16;39.69;102669.91;7284402;19;152742;-53
2022/03/06 10:28:26;;;;;;;;;;;;;;;20.11;39.79;102678.28;7280329;19;153902;-53
2022/03/06 10:30:52;;;;;;;;;;;;;;;20.08;39.15;102676.81;7285189;19;151944;-54
2022/03/06 10:33:21;;;;;;;;;;;;;;;20.04;39.48;102678.47;7284686;19;153289;-53
2022/03/06 10:35:50;;;;;;;;;;;;;;;20.01;39.46;102681.81;7281901;19;154434;-53
2022/03/06 10:38:17;;;;;;;;;;;;;;;19.96;39.42;102691.00;7290030;19;152111;-53
2022/03/06 10:40:43;;;;;;;;;;;;;;;19.93;39.58;102694.34;7284172;19;153678;-53
2022/03/06 10:43:17;;;;;;;;;;;;;;;19.92;39.63;102691.78;7283730;19;151790;-53
2022/03/06 10:45:45;;;;;;;;;;;;;;;19.88;39.41;102685.88;7284277;19;153504;-53
2022/03/06 10:48:12;;;;;;;;;;;;;;;19.86;39.60;102687.22;7279800;19;153831;-53
2022/03/06 10:50:39;;;;;;;;;;;;;;;19.85;39.51;102685.56;7284245;19;151868;-53
2022/03/06 10:53:16;;;;;;;;;;;;;;;19.80;39.36;102697.56;7279306;19;152744;-53
2022/03/06 10:55:42;;;;;;;;;;;;;;;19.80;39.61;102700.34;7282565;19;154328;-52
2022/03/06 10:58:10;;;;;;;;;;;;;;;19.78;39.49;102685.72;7283573;19;152212;-53
2022/03/06 11:00:37;;;;;;;;;;;;;;;19.75;39.68;102696.63;7288574;19;153652;-53
2022/03/06 11:03:04;;;;;;;;;;;;;;;19.72;39.66;102694.34;7283319;19;151642;-53
2022/03/06 11:05:32;;;;;;;;;;;;;;;19.72;40.04;102692.38;7282385;19;153747;-53
2022/03/06 11:08:00;;;;;;;;;;;;;;;19.75;39.62;102703.09;7279772;19;154244;-53
2022/03/06 11:10:28;;;;;;;;;;;;;;;19.87;39.83;102701.00;7281139;19;152212;-54
2022/03/06 11:12:55;;;;;;;;;;;;;;;19.90;39.96;102703.28;7280002;19;152671;-53
2022/03/06 11:15:22;;;;;;;;;;;;;;;19.97;39.38;102694.66;7280148;19;153902;-53
2022/03/06 11:17:49;;;;;;;;;;;;;;;19.99;39.93;102698.91;7280500;19;151954;-54
2022/03/06 11:20:16;;;;;;;;;;;;;;;20.05;39.21;102690.53;7281839;19;152984;-52
2022/03/06 11:22:47;;;;;;;;;;;;;;;20.07;39.53;102688.34;7288489;19;151712;-53
2022/03/06 11:25:20;;;;;;;;;;;;;;;20.12;39.81;102683.63;7281551;19;152959;-53
2022/03/06 11:27:47;;;;;;;;;;;;;;;20.18;39.90;102690.97;7279740;19;154228;-53
2022/03/06 11:30:20;;;;;;;;;;;;;;;20.24;40.16;102687.13;7281703;19;152161;-53
2022/03/06 11:32:57;;;;;;;;;;;;;;;20.30;40.16;102683.31;7246210;19;152858;-52
2022/03/06 11:35:29;;;;;;;;;;;;;;;20.36;39.78;102675.75;7267947;19;152580;-54
2022/03/06 11:37:57;;;;;;;;;;;;;;;20.42;40.01;102689.59;7281492;19;151838;-53
2022/03/06 11:40:37;;;;;;;;;;;;;;;20.48;40.08;102686.84;7279291;19;153361;-53
2022/03/06 11:43:07;;;;;;;;;;;;;;;20.51;40.01;102691.91;7289680;19;153910;-53
2022/03/06 11:45:55;;;;;;;;;;;;;;;20.55;40.00;102682.69;7279935;19;155088;-52
2022/03/06 11:48:23;;;;;;;;;;;;;;;20.60;40.05;102673.47;7279093;19;154066;-53
2022/03/06 11:51:00;;;;;;;;;;;;;;;20.65;40.00;102674.38;7280068;19;151579;-53
2022/03/06 11:53:39;;;;;;;;;;;;;;;20.70;39.69;102662.34;7280281;19;153447;-53
2022/03/06 11:56:15;;;;;;;;;;;;;;;20.73;39.80;102671.06;7280710;19;153452;-53
2022/03/06 11:58:52;;;;;;;;;;;;;;;20.77;39.55;102672.22;7281890;19;152272;-53
2022/03/06 12:01:28;;;;;;;;;;;;;;;20.82;39.84;102671.41;7281953;19;153309;-53
2022/03/06 12:04:00;;;;;;;;;;;;;;;20.86;39.76;102676.22;7278730;19;153460;-53
2022/03/06 12:06:27;;;;;;;;;;;;;;;20.93;39.32;102672.34;7290551;19;151722;-53
2022/03/06 12:08:54;;;;;;;;;;;;;;;21.00;39.06;102675.75;7279508;19;153940;-53
2022/03/06 12:11:21;;;;;;;;;;;;;;;20.98;38.76;102672.41;7277290;19;151659;-52
2022/03/06 12:13:49;;;;;;;;;;;;;;;21.02;38.97;102673.53;7276107;19;153223;-53
2022/03/06 12:16:16;;;;;;;;;;;;;;;21.06;39.38;102674.69;7277055;19;153404;-53
2022/03/06 12:19:00;;;;;;;;;;;;;;;21.08;38.85;102670.47;7274935;19;152156;-54
2022/03/06 12:21:37;;;;;;;;;;;;;;;21.09;38.94;102672.19;7279892;19;152594;-53
2022/03/06 12:24:11;;;;;;;;;;;;;;;21.11;38.30;102667.16;7277701;19;153796;-53
2022/03/06 12:26:41;;;;;;;;;;;;;;;21.10;38.73;102665.44;7279083;19;152050;-53
2022/03/06 12:29:08;;;;;;;;;;;;;;;21.12;38.27;102666.00;7280753;19;153565;-53